createdAt,value
2023-11-01T00:04:01.126Z,7.55
2023-11-01T00:09:02.271Z,5.87
2023-11-01T00:14:03.582Z,12.03
2023-11-01T00:19:05.559Z,6.57
2023-11-01T00:24:06.836Z,7.07
2023-11-01T00:29:08.116Z,5.87
2023-11-01T00:34:09.534Z,10.87
2023-11-01T00:39:10.612Z,7.17
2023-11-01T00:44:11.716Z,6.03
2023-11-01T00:49:12.774Z,9.87
2023-11-01T00:54:13.834Z,6.97
2023-11-01T00:59:14.982Z,10.33
2023-11-01T01:04:16.283Z,11.80
2023-11-01T01:09:17.638Z,8.23
2023-11-01T01:14:20.071Z,7.53
2023-11-01T01:19:22.562Z,6.20
2023-11-01T01:24:23.901Z,7.28
2023-11-01T01:29:25.440Z,9.35
2023-11-01T01:34:26.594Z,5.15
2023-11-01T01:39:27.771Z,4.47
2023-11-01T01:44:28.894Z,3.78
2023-11-01T01:49:36.916Z,4.50
2023-11-01T01:54:41.060Z,9.60
2023-11-01T01:59:42.130Z,9.13
2023-11-01T02:04:43.659Z,13.15
2023-11-01T02:09:45.197Z,10.85
2023-11-01T02:14:46.660Z,10.88
2023-11-01T02:19:47.768Z,15.88
2023-11-01T02:24:48.969Z,8.98
2023-11-01T02:29:50.791Z,25.70
2023-11-01T02:34:51.915Z,17.88
2023-11-01T02:39:53.582Z,13.93
2023-11-01T02:44:54.709Z,15.73
2023-11-01T02:49:55.925Z,15.77
2023-11-01T02:54:57.033Z,15.77
2023-11-01T02:59:59.582Z,12.90
2023-11-01T03:05:01.301Z,16.45
2023-11-01T03:10:03.053Z,15.73
2023-11-01T03:15:04.837Z,12.23
2023-11-01T03:20:08.711Z,21.70
2023-11-01T03:25:09.891Z,16.90
2023-11-01T03:30:11.252Z,22.77
2023-11-01T03:35:12.321Z,14.23
2023-11-01T03:40:13.411Z,18.70
2023-11-01T03:45:14.480Z,29.73
2023-11-01T03:50:15.684Z,11.57
2023-11-01T03:55:16.796Z,14.30
2023-11-01T04:00:21.506Z,18.27
2023-11-01T04:05:22.598Z,15.93
2023-11-01T04:10:23.782Z,18.13
2023-11-01T04:15:24.958Z,13.18
2023-11-01T04:20:26.118Z,19.63
2023-11-01T04:25:28.464Z,18.85
2023-11-01T04:30:38.536Z,14.05
2023-11-01T04:35:39.712Z,17.60
2023-11-01T04:40:40.882Z,19.10
2023-11-01T04:45:41.961Z,15.13
2023-11-01T04:50:48.639Z,15.00
2023-11-01T04:55:51.394Z,11.85
2023-11-01T05:00:52.489Z,23.17
2023-11-01T05:05:53.544Z,15.95
2023-11-01T05:10:54.727Z,15.00
2023-11-01T05:15:56.222Z,13.80
2023-11-01T05:20:57.366Z,15.60
2023-11-01T05:25:58.437Z,12.25
2023-11-01T05:30:59.500Z,18.98
2023-11-01T05:36:06.972Z,22.77
2023-11-01T05:41:11.949Z,18.20
2023-11-01T05:46:13.136Z,18.35
2023-11-01T05:51:15.186Z,21.58
2023-11-01T05:56:16.311Z,19.13
2023-11-01T06:01:17.516Z,14.18
2023-11-01T06:06:18.575Z,14.70
2023-11-01T06:11:20.263Z,16.15
2023-11-01T06:16:21.460Z,12.88
2023-11-01T06:21:23.713Z,16.75
2023-11-01T06:26:25.321Z,10.68
2023-11-01T06:31:26.379Z,17.23
2023-11-01T06:36:27.444Z,12.52
2023-11-01T06:41:28.694Z,15.02
2023-11-01T06:46:29.804Z,12.45
2023-11-01T06:51:30.892Z,13.98
2023-11-01T06:56:32.020Z,14.20
2023-11-01T07:01:33.190Z,15.48
2023-11-01T07:06:34.251Z,14.25
2023-11-01T07:11:36.091Z,9.25
2023-11-01T07:16:41.706Z,9.57
2023-11-01T07:21:45.128Z,11.85
2023-11-01T07:26:46.282Z,14.77
2023-11-01T07:31:47.413Z,13.43
2023-11-01T07:36:48.461Z,16.48
2023-11-01T07:41:49.573Z,10.40
2023-11-01T07:46:50.672Z,25.48
2023-11-01T07:51:51.744Z,9.68
2023-11-01T07:56:52.910Z,13.10
2023-11-01T08:01:55.240Z,11.23
2023-11-01T08:06:57.176Z,7.10
2023-11-01T08:11:58.422Z,11.27
2023-11-01T08:16:59.630Z,11.43
2023-11-01T08:22:01.235Z,11.50
2023-11-01T08:27:03.274Z,24.50
2023-11-01T08:32:05.982Z,9.68
2023-11-01T08:37:07.148Z,7.28
2023-11-01T08:42:08.478Z,9.40
2023-11-01T08:47:29.583Z,10.80
2023-11-01T08:52:32.519Z,8.35
2023-11-01T08:57:33.701Z,8.43
2023-11-01T09:02:35.255Z,8.93
2023-11-01T09:07:36.973Z,9.32
2023-11-01T09:12:38.217Z,9.45
2023-11-01T09:17:39.622Z,9.35
2023-11-01T09:22:41.137Z,7.10
2023-11-01T09:27:42.214Z,9.00
2023-11-01T09:32:43.585Z,11.07
2023-11-01T09:37:44.763Z,8.27
2023-11-01T09:42:48.023Z,10.68
2023-11-01T09:47:50.751Z,8.00
2023-11-01T09:52:51.938Z,7.75
2023-11-01T09:57:53.338Z,7.18
2023-11-01T10:02:55.181Z,5.50
2023-11-01T10:07:56.899Z,9.70
2023-11-01T10:12:57.985Z,5.65
2023-11-01T10:17:59.330Z,6.80
2023-11-01T10:23:01.172Z,7.43
2023-11-01T10:28:02.270Z,8.18
2023-11-01T10:33:03.576Z,6.80
2023-11-01T10:38:04.792Z,12.23
2023-11-01T10:43:06.801Z,6.75
2023-11-01T10:48:08.651Z,3.75
2023-11-01T10:53:11.923Z,5.50
2023-11-01T10:58:14.826Z,8.15
2023-11-01T11:03:20.614Z,6.72
2023-11-01T11:08:21.873Z,4.72
2023-11-01T11:13:23.834Z,8.02
2023-11-01T11:18:29.126Z,3.67
2023-11-01T11:23:34.703Z,4.95
2023-11-01T11:28:35.853Z,4.75
2023-11-01T11:33:58.246Z,8.38
2023-11-01T11:39:06.005Z,3.60
2023-11-01T11:44:12.021Z,5.88
2023-11-01T11:49:25.297Z,5.82
2023-11-01T11:54:28.532Z,3.38
2023-11-01T11:59:29.673Z,6.63
2023-11-01T12:04:35.318Z,4.28
2023-11-01T12:09:38.085Z,6.47
2023-11-01T12:14:41.253Z,3.65
2023-11-01T12:19:47.229Z,5.10
2023-11-01T12:24:49.769Z,2.47
2023-11-01T12:29:55.877Z,7.88
2023-11-01T12:34:56.961Z,4.45
2023-11-01T12:40:04.309Z,6.03
2023-11-01T12:45:06.186Z,5.47
2023-11-01T12:50:08.333Z,4.72
2023-11-01T12:55:09.503Z,4.10
2023-11-01T13:00:12.839Z,4.47
2023-11-01T13:05:14.147Z,5.57
2023-11-01T13:10:15.699Z,5.15
2023-11-01T13:15:17.482Z,3.83
2023-11-01T13:20:18.856Z,5.68
2023-11-01T13:25:19.894Z,9.15
2023-11-01T13:30:20.964Z,5.43
2023-11-01T13:35:22.268Z,4.80
2023-11-01T13:40:23.749Z,6.20
2023-11-01T13:45:24.807Z,3.08
2023-11-01T13:50:25.879Z,3.45
2023-11-01T13:55:34.246Z,4.57
2023-11-01T14:00:38.029Z,4.25
2023-11-01T14:05:40.995Z,7.05
2023-11-01T14:10:44.715Z,4.28
2023-11-01T14:15:46.216Z,5.30
2023-11-01T14:20:50.759Z,4.57
2023-11-01T14:25:53.758Z,3.67
2023-11-01T14:30:57.926Z,5.95
2023-11-01T14:36:00.328Z,3.58
2023-11-01T14:41:01.747Z,3.22
2023-11-01T14:46:03.952Z,2.75
2023-11-01T14:51:06.620Z,3.33
2023-11-01T14:56:18.190Z,4.30
2023-11-01T15:01:19.396Z,4.43
2023-11-01T15:06:20.474Z,4.97
2023-11-01T15:11:21.865Z,3.83
2023-11-01T15:16:23.020Z,2.50
2023-11-01T15:21:24.202Z,6.15
2023-11-01T15:26:26.277Z,1.75
2023-11-01T15:31:27.530Z,7.63
2023-11-01T15:36:28.987Z,3.88
2023-11-01T15:41:30.105Z,3.60
2023-11-01T15:46:31.181Z,3.30
2023-11-01T15:51:32.372Z,3.60
2023-11-01T15:56:37.610Z,3.25
2023-11-01T16:01:38.683Z,4.07
2023-11-01T16:06:40.297Z,4.75
2023-11-01T16:11:41.457Z,4.13
2023-11-01T16:16:44.609Z,3.07
2023-11-01T16:21:45.891Z,4.82
2023-11-01T16:26:46.985Z,4.40
2023-11-01T16:31:48.568Z,6.00
2023-11-01T16:36:49.696Z,5.18
2023-11-01T16:41:50.766Z,6.23
2023-11-01T16:46:51.845Z,4.60
2023-11-01T16:51:52.976Z,4.77
2023-11-01T16:56:54.074Z,5.43
2023-11-01T17:01:55.153Z,5.07
2023-11-01T17:06:57.177Z,5.23
2023-11-01T17:11:59.101Z,5.90
2023-11-01T17:17:01.874Z,5.73
2023-11-01T17:22:06.223Z,6.00
2023-11-01T17:27:07.325Z,10.43
2023-11-01T17:32:08.506Z,6.20
2023-11-01T17:37:11.542Z,2.63
2023-11-01T17:42:12.871Z,4.90
2023-11-01T17:47:25.085Z,4.20
2023-11-01T17:52:31.866Z,5.97
2023-11-01T17:57:35.054Z,10.95
2023-11-01T18:03:04.897Z,7.83
2023-11-01T18:08:10.697Z,6.55
2023-11-01T18:13:25.225Z,6.78
2023-11-01T18:18:50.575Z,4.90
2023-11-01T18:23:53.369Z,6.43
2023-11-01T18:28:58.643Z,5.53
2023-11-01T18:34:02.007Z,2.63
2023-11-01T18:39:03.606Z,1.83
2023-11-01T18:44:25.133Z,3.67
2023-11-01T18:49:28.979Z,5.13
2023-11-01T18:54:47.234Z,2.40
2023-11-01T18:59:48.369Z,1.97
2023-11-01T19:04:49.510Z,4.90
2023-11-01T19:09:50.759Z,3.47
2023-11-01T19:14:51.861Z,2.77
2023-11-01T19:19:52.896Z,4.37
2023-11-01T19:24:54.037Z,3.23
2023-11-01T19:29:55.108Z,4.63
2023-11-01T19:34:56.932Z,3.63
2023-11-01T19:39:58.150Z,4.17
2023-11-01T19:45:00.420Z,3.93
2023-11-01T19:50:01.713Z,4.77
2023-11-01T19:55:02.985Z,4.57
2023-11-01T20:00:05.377Z,6.53
2023-11-01T20:05:11.466Z,8.90
2023-11-01T20:10:12.870Z,5.97
2023-11-01T20:15:16.093Z,4.70
2023-11-01T20:20:17.479Z,5.07
2023-11-01T20:25:18.842Z,6.53
2023-11-01T20:30:20.236Z,3.27
2023-11-01T20:35:21.335Z,1.83
2023-11-01T20:40:24.691Z,2.40
2023-11-01T20:45:26.033Z,4.53
2023-11-01T20:50:27.843Z,5.87
2023-11-01T20:55:28.995Z,4.03
2023-11-01T21:00:30.297Z,2.77
2023-11-01T21:05:33.795Z,4.53
2023-11-01T21:10:35.346Z,7.13
2023-11-01T21:15:36.581Z,5.73
2023-11-01T21:20:37.744Z,4.07
2023-11-01T21:25:38.831Z,5.03
2023-11-01T21:30:40.005Z,4.83
2023-11-01T21:35:41.180Z,5.47
2023-11-01T21:40:45.835Z,5.83
2023-11-01T21:45:50.091Z,8.23
2023-11-01T21:50:59.923Z,11.33
2023-11-01T21:56:01.572Z,7.73
2023-11-01T22:01:05.381Z,8.50
2023-11-01T22:06:17.892Z,5.73
2023-11-01T22:11:19.088Z,9.17
2023-11-01T22:16:28.557Z,10.93
2023-11-01T22:21:37.762Z,6.30
2023-11-01T22:26:40.265Z,6.60
2023-11-01T22:31:54.197Z,7.90
2023-11-01T22:36:55.247Z,6.90
2023-11-01T22:41:57.074Z,9.07
2023-11-01T22:46:58.434Z,8.37
2023-11-01T22:52:00.957Z,9.17
2023-11-01T22:57:02.085Z,7.20
2023-11-01T23:02:07.580Z,12.80
2023-11-01T23:07:09.705Z,5.20
2023-11-01T23:12:11.761Z,8.17
2023-11-01T23:17:12.937Z,5.30
2023-11-01T23:22:14.034Z,5.87
2023-11-01T23:27:15.446Z,7.90
2023-11-01T23:32:20.959Z,5.87
2023-11-01T23:37:38.004Z,14.17
2023-11-01T23:42:39.133Z,7.80
2023-11-01T23:48:04.025Z,7.90
2023-11-01T23:53:07.928Z,11.40
2023-11-01T23:58:09.009Z,7.73
